Robertville, South Carolina
Current Conditions -  °F | °C
As of 7:35 PM on Monday 24 Nov 2014 (Local Time) from KJYL Reporting Station
Thunderstorm Thunderstorm  
Wind Chill: 63°   Ceiling: 5500
Heat Index: 63°   Visibility: 7mi
Dew Point: 61°   Wind: 3mph
Humidity: 96%   Direction: 200°SSW
Pressure: 29.94"   Gusts: NA
Location:  32.6001°N, 81.2393°W
Report Text: KJYL 250035Z AUTO 20003KT 7SM -VCTSRA SCT040 BKN055 BKN080 17/16 A2994 RMK AO2 LTG DSNT E AND SE T01700163
Loading
Personal Weather Stations






























Interactive Weather Map New forecast layout! Learn more

10-Day Weather Forecast

Advertisements
Track Severe Weather on mobile